createdAt,value
2018-04-20T00:00:39.660Z,3.53
2018-04-20T00:04:42.194Z,6.33
2018-04-20T00:08:45.534Z,5.07
2018-04-20T00:12:48.066Z,4.67
2018-04-20T00:16:50.658Z,7.83
2018-04-20T00:20:53.198Z,5.77
2018-04-20T00:24:55.780Z,5.43
2018-04-20T00:28:58.308Z,6.00
2018-04-20T00:33:01.956Z,12.50
2018-04-20T00:37:04.505Z,7.70
2018-04-20T00:41:07.152Z,5.40
2018-04-20T00:45:09.723Z,6.73
2018-04-20T00:49:14.076Z,6.57
2018-04-20T00:53:16.723Z,4.73
2018-04-20T00:57:19.273Z,7.00
2018-04-20T01:01:21.818Z,4.03
2018-04-20T01:05:24.395Z,9.67
2018-04-20T01:09:27.771Z,9.00
2018-04-20T01:13:30.418Z,5.70
2018-04-20T01:17:32.985Z,4.93
2018-04-20T01:21:35.816Z,13.00
2018-04-20T01:25:38.341Z,10.33
2018-04-20T01:29:40.906Z,9.00
2018-04-20T01:33:43.446Z,7.17
2018-04-20T01:37:46.303Z,11.67
2018-04-20T01:41:49.865Z,8.20
2018-04-20T01:45:52.408Z,6.90
2018-04-20T01:49:54.961Z,11.53
2018-04-20T01:53:57.834Z,12.50
2018-04-20T01:58:00.375Z,9.27
2018-04-20T02:02:02.952Z,6.00
2018-04-20T02:06:05.639Z,6.70
2018-04-20T02:10:08.293Z,6.53
2018-04-20T02:14:14.792Z,7.00
2018-04-20T02:18:17.367Z,5.70
2018-04-20T02:22:19.875Z,7.67
2018-04-20T02:26:22.445Z,10.60
2018-04-20T02:30:25.735Z,8.40
2018-04-20T02:34:28.597Z,10.07
2018-04-20T02:38:31.132Z,16.37
2018-04-20T02:42:33.706Z,4.93
2018-04-20T02:46:36.248Z,5.53
2018-04-20T02:50:46.303Z,5.07
2018-04-20T02:54:48.838Z,4.63
2018-04-20T02:58:51.413Z,4.73
2018-04-20T03:02:54.885Z,9.67
2018-04-20T03:06:57.453Z,4.67
2018-04-20T03:10:59.988Z,12.57
2018-04-20T03:15:02.573Z,5.93
2018-04-20T03:19:05.121Z,7.93
2018-04-20T03:23:07.688Z,9.30
2018-04-20T03:27:10.231Z,5.93
2018-04-20T03:31:12.888Z,4.03
2018-04-20T03:35:15.433Z,6.77
2018-04-20T03:39:18.004Z,6.03
2018-04-20T03:43:21.493Z,4.43
2018-04-20T03:47:24.906Z,5.10
2018-04-20T03:51:31.492Z,5.87
2018-04-20T03:55:34.152Z,6.00
2018-04-20T03:59:36.695Z,13.40
2018-04-20T04:03:39.264Z,5.63
2018-04-20T04:07:41.809Z,7.73
2018-04-20T04:11:44.745Z,5.57
2018-04-20T04:15:47.262Z,13.40
2018-04-20T04:20:12.575Z,7.83
2018-04-20T04:24:26.806Z,7.40
2018-04-20T04:28:29.479Z,5.47
2018-04-20T04:32:32.030Z,11.73
2018-04-20T04:36:34.604Z,7.83
2018-04-20T04:40:39.854Z,3.87
2018-04-20T04:44:42.427Z,7.20
2018-04-20T04:48:44.964Z,6.67
2018-04-20T04:52:47.821Z,9.20
2018-04-20T04:56:50.392Z,8.23
2018-04-20T05:00:53.078Z,5.47
2018-04-20T05:04:55.627Z,10.57
2018-04-20T05:08:58.943Z,4.90
2018-04-20T05:13:01.512Z,9.50
2018-04-20T05:17:04.063Z,10.77
2018-04-20T05:21:07.343Z,7.90
2018-04-20T05:25:11.811Z,9.13
2018-04-20T05:29:14.331Z,7.13
2018-04-20T05:33:16.879Z,11.37
2018-04-20T05:37:19.386Z,14.10
2018-04-20T05:41:21.935Z,12.10
2018-04-20T05:45:24.446Z,13.10
2018-04-20T05:49:27.715Z,8.40
2018-04-20T05:53:30.246Z,10.70
2018-04-20T05:57:43.900Z,8.70
2018-04-20T06:02:00.126Z,10.40
2018-04-20T06:06:02.967Z,6.17
2018-04-20T06:10:05.479Z,9.17
2018-04-20T06:14:08.019Z,7.30
2018-04-20T06:18:12.504Z,9.27
2018-04-20T06:22:15.053Z,8.60
2018-04-20T06:26:18.530Z,12.10
2018-04-20T06:30:21.071Z,5.70
2018-04-20T06:34:23.588Z,8.80
2018-04-20T06:38:26.219Z,9.47
2018-04-20T06:42:28.743Z,12.23
2018-04-20T06:46:31.278Z,11.23
2018-04-20T06:50:35.711Z,21.33
2018-04-20T06:54:38.346Z,25.00
2018-04-20T06:58:40.970Z,24.37
2018-04-20T07:02:43.511Z,19.73
2018-04-20T07:06:46.023Z,18.60
2018-04-20T07:10:48.565Z,17.37
2018-04-20T07:14:54.434Z,18.97
2018-04-20T07:18:57.369Z,17.20
2018-04-20T07:22:59.882Z,19.97
2018-04-20T07:27:02.527Z,21.23
2018-04-20T07:31:05.143Z,13.17
2018-04-20T07:35:07.688Z,22.20
2018-04-20T07:39:10.211Z,10.23
2018-04-20T07:43:12.759Z,10.45
2018-04-20T07:47:15.275Z,16.83
2018-04-20T07:51:17.842Z,16.40
2018-04-20T07:55:21.148Z,18.83
2018-04-20T07:59:23.703Z,9.02
2018-04-20T08:03:26.218Z,8.20
2018-04-20T08:07:28.762Z,10.82
2018-04-20T08:11:31.279Z,13.50
2018-04-20T08:15:33.824Z,10.70
2018-04-20T08:19:36.342Z,10.48
2018-04-20T08:23:39.183Z,7.35
2018-04-20T08:27:41.746Z,7.32
2018-04-20T08:31:44.384Z,10.40
2018-04-20T08:35:46.895Z,7.47
2018-04-20T08:39:49.660Z,6.85
2018-04-20T08:43:52.177Z,5.72
2018-04-20T08:47:54.709Z,9.32
2018-04-20T08:51:57.224Z,6.55
2018-04-20T08:56:00.147Z,6.72
2018-04-20T09:00:02.662Z,6.47
2018-04-20T09:04:05.223Z,6.12
2018-04-20T09:08:07.743Z,12.32
2018-04-20T09:12:10.283Z,6.65
2018-04-20T09:16:13.564Z,8.52
2018-04-20T09:20:16.100Z,7.00
2018-04-20T09:24:18.611Z,8.80
2018-04-20T09:28:21.438Z,8.25
2018-04-20T09:32:24.719Z,9.75
2018-04-20T09:36:27.355Z,6.20
2018-04-20T09:40:30.632Z,4.72
2018-04-20T09:44:33.176Z,7.32
2018-04-20T09:48:37.691Z,5.30
2018-04-20T09:52:41.251Z,6.22
2018-04-20T09:56:43.779Z,7.60
2018-04-20T10:00:48.176Z,6.53
2018-04-20T10:04:50.694Z,7.50
2018-04-20T10:08:53.330Z,5.83
2018-04-20T10:12:55.876Z,4.33
2018-04-20T10:16:58.406Z,8.10
2018-04-20T10:21:00.918Z,7.57
2018-04-20T10:25:03.566Z,4.43
2018-04-20T10:29:06.847Z,7.33
2018-04-20T10:33:09.477Z,4.60
2018-04-20T10:37:11.995Z,4.30
2018-04-20T10:41:15.302Z,8.07
2018-04-20T10:45:17.810Z,7.07
2018-04-20T10:49:21.327Z,4.53
2018-04-20T10:53:23.835Z,5.07
2018-04-20T10:57:26.371Z,4.47
2018-04-20T11:01:29.744Z,8.57
2018-04-20T11:05:32.377Z,6.73
2018-04-20T11:09:35.886Z,8.13
2018-04-20T11:13:38.438Z,5.30
2018-04-20T11:17:40.996Z,3.10
2018-04-20T11:21:46.543Z,6.23
2018-04-20T11:25:49.055Z,3.97
2018-04-20T11:29:51.691Z,6.10
2018-04-20T11:33:54.205Z,4.73
2018-04-20T11:37:57.020Z,6.20
2018-04-20T11:41:59.542Z,6.83
2018-04-20T11:46:02.087Z,4.60
2018-04-20T11:50:04.603Z,6.47
2018-04-20T11:54:07.448Z,6.17
2018-04-20T11:58:09.958Z,3.00
2018-04-20T12:02:12.531Z,3.03
2018-04-20T12:06:15.044Z,3.50
2018-04-20T12:10:17.869Z,5.43
2018-04-20T12:14:20.396Z,6.67
2018-04-20T12:18:22.970Z,3.03
2018-04-20T12:22:25.483Z,4.50
2018-04-20T12:26:28.035Z,5.00
2018-04-20T12:30:32.547Z,3.90
2018-04-20T12:34:35.107Z,7.53
2018-04-20T12:38:37.636Z,5.67
2018-04-20T12:42:43.745Z,7.03
2018-04-20T12:46:46.282Z,3.47
2018-04-20T12:50:49.643Z,6.43
2018-04-20T12:54:52.186Z,3.60
2018-04-20T12:58:54.765Z,4.80
2018-04-20T13:02:57.307Z,4.90
2018-04-20T13:07:01.027Z,3.90
2018-04-20T13:11:05.571Z,5.13
2018-04-20T13:15:08.145Z,4.37
2018-04-20T13:19:10.674Z,6.20
2018-04-20T13:23:13.229Z,17.47
2018-04-20T13:27:16.531Z,9.07
2018-04-20T13:31:19.157Z,6.67
2018-04-20T13:35:21.648Z,4.60
2018-04-20T13:39:24.213Z,5.03
2018-04-20T13:43:26.838Z,7.07
2018-04-20T13:47:31.344Z,3.03
2018-04-20T13:51:33.949Z,4.63
2018-04-20T13:55:40.449Z,5.33
2018-04-20T13:59:49.857Z,3.87
2018-04-20T14:03:52.498Z,8.67
2018-04-20T14:07:55.059Z,9.30
2018-04-20T14:11:57.626Z,8.27
2018-04-20T14:16:00.921Z,5.03
2018-04-20T14:20:03.500Z,5.40
2018-04-20T14:24:06.052Z,5.40
2018-04-20T14:28:09.379Z,8.37
2018-04-20T14:32:12.692Z,4.73
2018-04-20T14:36:15.679Z,4.70
2018-04-20T14:40:18.194Z,5.27
2018-04-20T14:44:22.066Z,5.23
2018-04-20T14:48:25.450Z,7.17
2018-04-20T14:52:32.702Z,5.50
2018-04-20T14:56:39.887Z,4.07
2018-04-20T15:00:42.540Z,4.17
2018-04-20T15:04:47.174Z,7.23
2018-04-20T15:08:50.484Z,4.73
2018-04-20T15:12:54.995Z,8.43
2018-04-20T15:16:58.606Z,7.83
2018-04-20T15:21:01.342Z,6.53
2018-04-20T15:25:04.886Z,4.90
2018-04-20T15:29:07.404Z,4.60
2018-04-20T15:33:10.048Z,5.27
2018-04-20T15:37:13.510Z,4.37
2018-04-20T15:41:16.148Z,7.33
2018-04-20T15:45:18.663Z,4.10
2018-04-20T15:49:23.250Z,5.13
2018-04-20T15:53:25.836Z,5.10
2018-04-20T15:57:31.090Z,5.90
2018-04-20T16:01:33.608Z,4.47
2018-04-20T16:05:36.943Z,6.43
2018-04-20T16:09:40.235Z,9.40
2018-04-20T16:13:42.785Z,6.63
2018-04-20T16:17:46.237Z,5.00
2018-04-20T16:21:49.464Z,3.70
2018-04-20T16:25:51.975Z,6.20
2018-04-20T16:29:54.537Z,5.97
2018-04-20T16:33:57.093Z,7.10
2018-04-20T16:37:59.740Z,5.90
2018-04-20T16:42:02.255Z,3.07
2018-04-20T16:46:04.824Z,5.83
2018-04-20T16:50:07.339Z,7.50
2018-04-20T16:54:10.048Z,6.07
2018-04-20T16:58:12.558Z,3.83
2018-04-20T17:02:15.975Z,2.37
2018-04-20T17:06:18.491Z,3.53
2018-04-20T17:10:23.734Z,3.43
2018-04-20T17:14:26.303Z,4.10
2018-04-20T17:18:28.843Z,10.83
2018-04-20T17:22:31.355Z,4.60
2018-04-20T17:26:33.898Z,7.77
2018-04-20T17:30:36.419Z,9.10
2018-04-20T17:34:53.654Z,5.97
2018-04-20T17:38:56.208Z,5.13
2018-04-20T17:42:58.861Z,13.33
2018-04-20T17:47:02.315Z,10.03
2018-04-20T17:51:04.894Z,8.33
2018-04-20T17:55:08.174Z,10.27
2018-04-20T17:59:10.711Z,9.47
2018-04-20T18:03:14.003Z,12.60
2018-04-20T18:07:16.626Z,7.27
2018-04-20T18:11:19.149Z,6.23
2018-04-20T18:15:22.545Z,3.40
2018-04-20T18:19:25.067Z,7.33
2018-04-20T18:23:27.937Z,8.30
2018-04-20T18:27:30.484Z,9.33
2018-04-20T18:31:33.251Z,6.67
2018-04-20T18:35:35.775Z,5.70
2018-04-20T18:39:41.465Z,11.97
2018-04-20T18:43:43.977Z,9.43
2018-04-20T18:47:57.563Z,10.83
2018-04-20T18:52:01.406Z,7.37
2018-04-20T18:56:04.994Z,5.37
2018-04-20T19:00:20.819Z,5.57
2018-04-20T19:04:23.382Z,8.83
2018-04-20T19:08:25.942Z,6.50
2018-04-20T19:12:28.514Z,13.97
2018-04-20T19:16:32.066Z,14.07
2018-04-20T19:20:34.651Z,10.63
2018-04-20T19:24:49.720Z,9.80
2018-04-20T19:28:53.198Z,12.77
2018-04-20T19:32:55.742Z,9.87
2018-04-20T19:36:58.311Z,15.00
2018-04-20T19:41:02.595Z,23.90
2018-04-20T19:45:09.237Z,19.27
2018-04-20T19:49:34.939Z,17.53
2018-04-20T19:53:38.607Z,13.00
2018-04-20T19:57:41.173Z,9.00
2018-04-20T20:01:46.440Z,7.87
2018-04-20T20:05:51.652Z,14.33
2018-04-20T20:10:00.949Z,8.57
2018-04-20T20:14:05.431Z,7.33
2018-04-20T20:18:08.863Z,10.73
2018-04-20T20:22:12.095Z,15.53
2018-04-20T20:26:16.688Z,12.33
2018-04-20T20:30:19.210Z,11.53
2018-04-20T20:34:21.779Z,7.73
2018-04-20T20:38:24.299Z,12.67
2018-04-20T20:42:27.253Z,12.97
2018-04-20T20:46:30.540Z,9.20
2018-04-20T20:50:33.150Z,14.03
2018-04-20T20:54:35.666Z,10.77
2018-04-20T20:58:39.314Z,11.27
2018-04-20T21:02:42.612Z,11.67
2018-04-20T21:06:45.197Z,14.13
2018-04-20T21:10:47.712Z,8.77
2018-04-20T21:14:50.268Z,6.60
2018-04-20T21:18:53.554Z,16.13
2018-04-20T21:23:01.401Z,9.70
2018-04-20T21:27:04.017Z,7.43
2018-04-20T21:31:08.510Z,12.80
2018-04-20T21:35:17.751Z,13.63
2018-04-20T21:39:22.110Z,7.77
2018-04-20T21:43:24.699Z,11.23
2018-04-20T21:47:31.677Z,13.47
2018-04-20T21:51:34.253Z,11.67
2018-04-20T21:55:36.839Z,23.57
2018-04-20T21:59:40.358Z,24.37
2018-04-20T22:03:43.684Z,16.93
2018-04-20T22:07:46.991Z,12.40
2018-04-20T22:11:50.531Z,10.40
2018-04-20T22:15:57.687Z,12.77
2018-04-20T22:20:00.247Z,14.13
2018-04-20T22:24:03.532Z,11.27
2018-04-20T22:28:06.092Z,13.93
2018-04-20T22:32:10.574Z,14.50
2018-04-20T22:36:14.142Z,11.57
2018-04-20T22:40:17.627Z,17.43
2018-04-20T22:44:24.884Z,17.90
2018-04-20T22:48:33.779Z,10.50
2018-04-20T22:52:36.333Z,10.47
2018-04-20T22:56:38.855Z,11.60
2018-04-20T23:00:41.414Z,12.30
2018-04-20T23:04:45.870Z,10.93
2018-04-20T23:08:48.423Z,13.57
2018-04-20T23:13:05.671Z,15.73
2018-04-20T23:17:08.218Z,10.77
2018-04-20T23:21:10.760Z,11.80
2018-04-20T23:25:15.223Z,8.70
2018-04-20T23:29:17.750Z,10.83
2018-04-20T23:33:21.061Z,8.53
2018-04-20T23:37:23.567Z,9.33
2018-04-20T23:41:39.526Z,10.77
2018-04-20T23:45:42.046Z,8.73
2018-04-20T23:49:44.890Z,8.67
2018-04-20T23:53:47.502Z,9.77
2018-04-20T23:57:52.055Z,10.57
